createdAt,value
2018-08-09T00:00:32.695Z,85.52
2018-08-09T00:01:32.739Z,85.42
2018-08-09T00:02:32.673Z,85.05
2018-08-09T00:03:32.717Z,84.75
2018-08-09T00:04:32.655Z,84.95
2018-08-09T00:05:32.671Z,85.16
2018-08-09T00:06:32.640Z,85.56
2018-08-09T00:07:32.627Z,85.56
2018-08-09T00:08:32.611Z,85.46
2018-08-09T00:09:32.624Z,85.25
2018-08-09T00:10:32.605Z,85.16
2018-08-09T00:11:32.585Z,86.16
2018-08-09T00:12:32.566Z,85.36
2018-08-09T00:13:32.568Z,85.86
2018-08-09T00:14:32.570Z,85.10
2018-08-09T00:15:32.546Z,85.86
2018-08-09T00:16:32.534Z,85.50
2018-08-09T00:17:32.513Z,84.79
2018-08-09T00:18:32.503Z,84.95
2018-08-09T00:19:32.527Z,85.19
2018-08-09T00:20:32.483Z,85.05
2018-08-09T00:21:32.494Z,84.75
2018-08-09T00:22:32.462Z,85.10
2018-08-09T00:23:32.451Z,84.95
2018-08-09T00:24:32.439Z,85.10
2018-08-09T00:25:32.454Z,85.30
2018-08-09T00:26:32.419Z,85.90
2018-08-09T00:27:32.410Z,86.61
2018-08-09T00:28:32.396Z,86.36
2018-08-09T00:29:32.386Z,85.90
2018-08-09T00:30:32.406Z,86.77
2018-08-09T00:31:32.379Z,86.41
2018-08-09T00:32:32.356Z,85.80
2018-08-09T00:33:32.346Z,86.16
2018-08-09T00:34:32.333Z,86.41
2018-08-09T00:35:32.324Z,86.61
2018-08-09T00:36:32.335Z,85.50
2018-08-09T00:37:32.301Z,86.21
2018-08-09T00:38:32.290Z,86.21
2018-08-09T00:39:32.282Z,86.65
2018-08-09T00:40:32.269Z,86.65
2018-08-09T00:41:32.308Z,86.85
2018-08-09T00:42:32.252Z,88.17
2018-08-09T00:43:32.237Z,87.26
2018-08-09T00:44:32.243Z,87.56
2018-08-09T00:45:32.215Z,87.96
2018-08-09T00:46:32.228Z,87.66
2018-08-09T00:47:32.198Z,87.86
2018-08-09T00:48:32.183Z,87.26
2018-08-09T00:49:32.174Z,87.66
2018-08-09T00:50:32.162Z,88.17
2018-08-09T00:51:32.187Z,87.76
2018-08-09T00:52:32.140Z,87.86
2018-08-09T00:53:32.132Z,87.56
2018-08-09T00:54:32.136Z,87.46
2018-08-09T00:55:32.107Z,87.96
2018-08-09T00:56:32.098Z,87.86
2018-08-09T00:57:32.109Z,87.86
2018-08-09T00:58:32.077Z,87.76
2018-08-09T00:59:32.067Z,88.17
2018-08-09T01:00:32.061Z,87.76
2018-08-09T01:01:32.049Z,88.47
2018-08-09T01:02:32.064Z,88.57
2018-08-09T01:03:32.023Z,87.86
2018-08-09T01:04:32.014Z,87.90
2018-08-09T01:05:32.004Z,87.30
2018-08-09T01:06:31.989Z,87.81
2018-08-09T01:07:31.988Z,88.41
2018-08-09T01:08:31.990Z,89.01
2018-08-09T01:09:31.957Z,88.41
2018-08-09T01:10:31.947Z,88.81
2018-08-09T01:11:31.936Z,89.52
2018-08-09T01:12:31.925Z,89.92
2018-08-09T01:13:31.937Z,90.12
2018-08-09T01:14:31.905Z,90.03
2018-08-09T01:15:31.892Z,89.92
2018-08-09T01:16:31.880Z,90.03
2018-08-09T01:17:31.885Z,89.32
2018-08-09T01:18:31.886Z,89.92
2018-08-09T01:19:31.849Z,90.12
2018-08-09T01:20:31.838Z,90.43
2018-08-09T01:21:31.829Z,89.92
2018-08-09T01:22:31.819Z,90.63
2018-08-09T01:23:31.841Z,90.47
2018-08-09T01:24:31.794Z,90.58
2018-08-09T01:25:31.784Z,90.27
2018-08-09T01:26:31.773Z,90.27
2018-08-09T01:27:31.763Z,90.17
2018-08-09T01:28:31.750Z,90.98
2018-08-09T01:29:31.765Z,91.18
2018-08-09T01:30:31.736Z,90.78
2018-08-09T01:31:31.721Z,90.07
2018-08-09T01:32:31.709Z,90.47
2018-08-09T01:33:31.702Z,89.36
2018-08-09T01:34:31.727Z,89.22
2018-08-09T01:35:31.742Z,89.06
2018-08-09T01:36:31.890Z,88.75
2018-08-09T01:37:31.658Z,89.36
2018-08-09T01:38:31.643Z,89.46
2018-08-09T01:39:31.633Z,88.92
2018-08-09T01:40:31.663Z,88.45
2018-08-09T01:41:31.612Z,88.85
2018-08-09T01:42:31.600Z,88.41
2018-08-09T01:43:31.590Z,88.96
2018-08-09T01:44:31.579Z,88.92
2018-08-09T01:45:31.591Z,88.81
2018-08-09T01:46:31.558Z,88.92
2018-08-09T01:47:31.546Z,88.10
2018-08-09T01:48:31.535Z,87.64
2018-08-09T01:49:31.524Z,87.74
2018-08-09T01:50:31.547Z,89.22
2018-08-09T01:51:31.505Z,88.15
2018-08-09T01:52:31.492Z,89.01
2018-08-09T01:53:31.480Z,88.92
2018-08-09T01:54:31.471Z,87.81
2018-08-09T01:55:31.482Z,88.01
2018-08-09T01:56:31.448Z,88.51
2018-08-09T01:57:31.438Z,89.01
2018-08-09T01:58:31.428Z,88.31
2018-08-09T01:59:31.419Z,88.92
2018-08-09T02:00:31.437Z,89.52
2018-08-09T02:01:31.394Z,88.92
2018-08-09T02:02:31.383Z,89.06
2018-08-09T02:03:31.379Z,89.01
2018-08-09T02:04:31.363Z,88.81
2018-08-09T02:05:31.351Z,88.92
2018-08-09T02:06:31.367Z,88.96
2018-08-09T02:07:31.331Z,89.32
2018-08-09T02:08:31.319Z,88.81
2018-08-09T02:09:31.311Z,89.62
2018-08-09T02:10:31.297Z,90.07
2018-08-09T02:11:31.323Z,89.32
2018-08-09T02:12:31.275Z,90.53
2018-08-09T02:13:31.281Z,89.36
2018-08-09T02:14:31.253Z,89.12
2018-08-09T02:15:31.248Z,88.92
2018-08-09T02:16:31.279Z,89.52
2018-08-09T02:17:31.222Z,88.41
2018-08-09T02:18:31.218Z,88.26
2018-08-09T02:19:31.199Z,87.15
2018-08-09T02:20:31.191Z,87.76
2018-08-09T02:21:31.180Z,87.56
2018-08-09T02:22:31.195Z,87.76
2018-08-09T02:23:31.157Z,87.46
2018-08-09T02:24:31.147Z,87.26
2018-08-09T02:25:31.140Z,87.26
2018-08-09T02:26:31.148Z,87.26
2018-08-09T02:27:31.144Z,87.21
2018-08-09T02:28:31.103Z,87.76
2018-08-09T02:29:31.094Z,87.56
2018-08-09T02:30:31.084Z,87.72
2018-08-09T02:31:31.072Z,87.32
2018-08-09T02:32:31.108Z,87.21
2018-08-09T02:33:31.064Z,86.16
2018-08-09T02:34:31.040Z,85.86
2018-08-09T02:35:31.029Z,85.80
2018-08-09T02:36:31.042Z,86.07
2018-08-09T02:37:31.006Z,85.46
2018-08-09T02:38:31.025Z,85.25
2018-08-09T02:39:30.988Z,85.66
2018-08-09T02:40:30.977Z,84.95
2018-08-09T02:41:30.965Z,85.36
2018-08-09T02:42:30.959Z,85.56
2018-08-09T02:43:30.967Z,86.36
2018-08-09T02:44:30.933Z,85.56
2018-08-09T02:45:30.924Z,85.25
2018-08-09T02:46:30.911Z,84.95
2018-08-09T02:47:30.901Z,85.16
2018-08-09T02:48:30.914Z,85.50
2018-08-09T02:49:30.895Z,85.50
2018-08-09T02:50:30.870Z,86.00
2018-08-09T02:51:30.858Z,86.00
2018-08-09T02:52:30.848Z,86.00
2018-08-09T02:53:30.867Z,86.21
2018-08-09T02:54:30.826Z,86.00
2018-08-09T02:55:30.816Z,86.41
2018-08-09T02:56:30.804Z,86.71
2018-08-09T02:57:30.795Z,86.91
2018-08-09T02:58:30.782Z,87.12
2018-08-09T02:59:30.812Z,86.91
2018-08-09T03:00:30.762Z,87.12
2018-08-09T03:01:30.752Z,86.04
2018-08-09T03:02:30.740Z,87.36
2018-08-09T03:03:30.732Z,87.15
2018-08-09T03:04:30.745Z,87.86
2018-08-09T03:05:30.709Z,87.96
2018-08-09T03:06:30.698Z,87.62
2018-08-09T03:07:30.687Z,88.32
2018-08-09T03:08:30.676Z,88.17
2018-08-09T03:09:30.706Z,87.86
2018-08-09T03:10:30.656Z,88.77
2018-08-09T03:11:30.645Z,87.86
2018-08-09T03:12:30.637Z,87.86
2018-08-09T03:13:30.623Z,87.62
2018-08-09T03:14:30.612Z,88.63
2018-08-09T03:15:30.627Z,88.47
2018-08-09T03:16:30.594Z,87.21
2018-08-09T03:17:30.580Z,88.63
2018-08-09T03:18:30.572Z,87.62
2018-08-09T03:19:30.558Z,87.72
2018-08-09T03:20:30.578Z,86.97
2018-08-09T03:21:30.537Z,87.21
2018-08-09T03:22:30.532Z,86.97
2018-08-09T03:23:30.521Z,87.27
2018-08-09T03:24:30.629Z,86.57
2018-08-09T03:25:30.567Z,86.87
2018-08-09T03:26:30.487Z,86.22
2018-08-09T03:27:30.472Z,86.77
2018-08-09T03:28:30.463Z,87.07
2018-08-09T03:29:30.451Z,86.16
2018-08-09T03:30:30.442Z,85.56
2018-08-09T03:31:30.454Z,86.16
2018-08-09T03:32:30.442Z,87.07
2018-08-09T03:33:30.410Z,86.16
2018-08-09T03:34:30.398Z,85.56
2018-08-09T03:35:30.388Z,86.57
2018-08-09T03:36:30.400Z,86.36
2018-08-09T03:37:30.369Z,85.76
2018-08-09T03:38:30.357Z,84.95
2018-08-09T03:39:30.346Z,85.56
2018-08-09T03:40:30.334Z,85.52
2018-08-09T03:41:30.350Z,85.62
2018-08-09T03:42:30.313Z,86.33
2018-08-09T03:43:30.302Z,86.02
2018-08-09T03:44:30.314Z,86.02
2018-08-09T03:45:30.285Z,85.92
2018-08-09T03:46:30.308Z,86.13
2018-08-09T03:47:30.265Z,85.72
2018-08-09T03:48:30.249Z,85.62
2018-08-09T03:49:30.238Z,85.22
2018-08-09T03:50:30.228Z,85.11
2018-08-09T03:51:30.217Z,84.91
2018-08-09T03:52:30.244Z,84.01
2018-08-09T03:53:30.818Z,85.02
2018-08-09T03:54:30.187Z,84.61
2018-08-09T03:55:30.201Z,85.08
2018-08-09T03:56:30.186Z,84.81
2018-08-09T03:57:30.235Z,84.97
2018-08-09T03:58:30.143Z,84.57
2018-08-09T03:59:30.147Z,84.57
2018-08-09T04:00:30.124Z,83.16
2018-08-09T04:01:30.111Z,83.76
2018-08-09T04:02:30.141Z,84.67
2018-08-09T04:03:30.091Z,84.37
2018-08-09T04:04:30.080Z,84.67
2018-08-09T04:05:30.071Z,83.36
2018-08-09T04:06:30.062Z,84.77
2018-08-09T04:07:30.048Z,84.67
2018-08-09T04:08:30.084Z,83.66
2018-08-09T04:09:30.069Z,84.13
2018-08-09T04:10:30.022Z,83.87
2018-08-09T04:11:30.009Z,83.36
2018-08-09T04:12:29.996Z,84.47
2018-08-09T04:13:30.009Z,84.67
2018-08-09T04:14:29.973Z,84.77
2018-08-09T04:15:29.963Z,84.37
2018-08-09T04:16:29.950Z,84.27
2018-08-09T04:17:29.940Z,84.88
2018-08-09T04:18:29.974Z,84.88
2018-08-09T04:19:29.919Z,85.17
2018-08-09T04:20:29.912Z,85.08
2018-08-09T04:21:29.898Z,84.67
2018-08-09T04:22:29.889Z,84.67
2018-08-09T04:23:29.876Z,84.57
2018-08-09T04:24:29.890Z,84.47
2018-08-09T04:25:29.863Z,84.17
2018-08-09T04:26:29.899Z,84.47
2018-08-09T04:27:29.834Z,84.97
2018-08-09T04:28:29.824Z,85.78
2018-08-09T04:29:29.836Z,85.98
2018-08-09T04:30:29.804Z,86.38
2018-08-09T04:31:29.799Z,86.18
2018-08-09T04:32:29.780Z,85.98
2018-08-09T04:33:29.768Z,85.78
2018-08-09T04:34:29.781Z,85.48
2018-08-09T04:35:29.755Z,86.08
2018-08-09T04:36:29.740Z,85.98
2018-08-09T04:37:29.728Z,86.08
2018-08-09T04:38:29.714Z,85.82
2018-08-09T04:39:29.733Z,85.98
2018-08-09T04:40:29.692Z,85.38
2018-08-09T04:41:29.693Z,85.38
2018-08-09T04:42:29.671Z,84.97
2018-08-09T04:43:29.660Z,85.58
2018-08-09T04:44:29.649Z,85.14
2018-08-09T04:45:29.662Z,85.03
2018-08-09T04:46:29.627Z,84.67
2018-08-09T04:47:29.617Z,84.74
2018-08-09T04:48:29.607Z,84.43
2018-08-09T04:49:29.595Z,84.23
2018-08-09T04:50:29.607Z,84.03
2018-08-09T04:51:29.572Z,84.63
2018-08-09T04:52:29.566Z,84.43
2018-08-09T04:53:29.552Z,84.33
2018-08-09T04:54:29.547Z,84.63
2018-08-09T04:55:29.563Z,84.33
2018-08-09T04:56:29.519Z,83.32
2018-08-09T04:57:29.511Z,83.48
2018-08-09T04:58:29.588Z,84.39
2018-08-09T04:59:29.486Z,84.09
2018-08-09T05:00:29.479Z,84.49
2018-08-09T05:01:29.488Z,84.39
2018-08-09T05:02:29.454Z,83.95
2018-08-09T05:03:29.442Z,84.55
2018-08-09T05:04:29.464Z,84.75
2018-08-09T05:05:29.420Z,83.34
2018-08-09T05:06:29.432Z,82.84
2018-08-09T05:07:29.399Z,82.54
2018-08-09T05:08:29.389Z,82.70
2018-08-09T05:09:29.377Z,83.31
2018-08-09T05:10:29.367Z,82.40
2018-08-09T05:11:29.383Z,82.20
2018-08-09T05:12:29.346Z,82.40
2018-08-09T05:13:29.335Z,82.40
2018-08-09T05:14:29.328Z,82.40
2018-08-09T05:15:29.313Z,82.90
2018-08-09T05:16:29.334Z,81.90
2018-08-09T05:17:29.296Z,82.60
2018-08-09T05:18:29.282Z,82.20
2018-08-09T05:19:29.291Z,82.40
2018-08-09T05:20:29.260Z,82.50
2018-08-09T05:21:29.248Z,81.99
2018-08-09T05:22:29.261Z,82.60
2018-08-09T05:23:29.228Z,82.20
2018-08-09T05:24:29.220Z,82.70
2018-08-09T05:25:29.205Z,82.70
2018-08-09T05:26:29.251Z,82.46
2018-08-09T05:27:29.254Z,82.86
2018-08-09T05:28:29.172Z,82.56
2018-08-09T05:29:29.162Z,81.35
2018-08-09T05:30:29.150Z,82.26
2018-08-09T05:31:29.139Z,81.26
2018-08-09T05:32:29.160Z,81.15
2018-08-09T05:33:29.117Z,82.36
2018-08-09T05:34:29.109Z,82.36
2018-08-09T05:35:29.096Z,82.32
2018-08-09T05:36:29.086Z,82.72
2018-08-09T05:37:29.099Z,82.52
2018-08-09T05:38:29.088Z,79.91
2018-08-09T05:39:29.053Z,80.68
2018-08-09T05:40:29.047Z,79.97
2018-08-09T05:41:29.036Z,79.47
2018-08-09T05:42:29.025Z,80.47
2018-08-09T05:43:29.034Z,80.98
2018-08-09T05:44:28.999Z,79.97
2018-08-09T05:45:28.989Z,79.77
2018-08-09T05:46:28.979Z,80.07
2018-08-09T05:47:28.971Z,79.47
2018-08-09T05:48:28.980Z,79.87
2018-08-09T05:49:28.947Z,80.77
2018-08-09T05:50:28.939Z,78.86
2018-08-09T05:51:28.931Z,79.67
2018-08-09T05:52:28.916Z,79.63
2018-08-09T05:53:28.932Z,79.53
2018-08-09T05:54:28.893Z,79.37
2018-08-09T05:55:28.883Z,79.06
2018-08-09T05:56:28.876Z,79.27
2018-08-09T05:57:28.861Z,78.86
2018-08-09T05:58:28.950Z,78.77
2018-08-09T05:59:28.840Z,79.27
2018-08-09T06:00:28.850Z,79.47
2018-08-09T06:01:28.818Z,79.37
2018-08-09T06:02:28.807Z,79.57
2018-08-09T06:03:28.796Z,79.87
2018-08-09T06:04:28.812Z,80.07
2018-08-09T06:05:28.779Z,79.17
2018-08-09T06:06:28.765Z,80.27
2018-08-09T06:07:28.754Z,79.37
2018-08-09T06:08:28.745Z,79.57
2018-08-09T06:09:28.757Z,78.77
2018-08-09T06:10:28.722Z,79.17
2018-08-09T06:11:28.714Z,79.47
2018-08-09T06:12:28.702Z,79.71
2018-08-09T06:13:28.728Z,79.67
2018-08-09T06:14:28.728Z,79.30
2018-08-09T06:15:28.670Z,79.61
2018-08-09T06:16:28.659Z,79.67
2018-08-09T06:17:28.648Z,79.71
2018-08-09T06:18:28.640Z,80.51
2018-08-09T06:19:28.627Z,79.91
2018-08-09T06:20:28.639Z,80.51
2018-08-09T06:21:28.605Z,80.37
2018-08-09T06:22:28.594Z,80.01
2018-08-09T06:23:28.595Z,79.97
2018-08-09T06:24:28.575Z,80.61
2018-08-09T06:25:28.588Z,81.07
2018-08-09T06:26:28.694Z,80.68
2018-08-09T06:27:28.540Z,80.27
2018-08-09T06:28:28.582Z,81.18
2018-08-09T06:29:28.520Z,80.68
2018-08-09T06:30:28.561Z,80.47
2018-08-09T06:31:28.502Z,80.98
2018-08-09T06:32:28.491Z,79.67
2018-08-09T06:33:28.494Z,79.17
2018-08-09T06:34:28.466Z,79.47
2018-08-09T06:35:28.459Z,79.57
2018-08-09T06:36:28.490Z,80.68
2018-08-09T06:37:28.434Z,80.57
2018-08-09T06:38:28.423Z,81.48
2018-08-09T06:39:28.413Z,81.68
2018-08-09T06:40:28.401Z,82.62
2018-08-09T06:41:28.416Z,81.68
2018-08-09T06:42:28.380Z,81.27
2018-08-09T06:43:28.369Z,81.41
2018-08-09T06:44:28.371Z,81.48
2018-08-09T06:45:28.349Z,81.01
2018-08-09T06:46:28.378Z,81.38
2018-08-09T06:47:28.330Z,81.07
2018-08-09T06:48:28.321Z,80.47
2018-08-09T06:49:28.305Z,80.88
2018-08-09T06:50:28.296Z,81.38
2018-08-09T06:51:28.314Z,81.38
2018-08-09T06:52:28.274Z,81.18
2018-08-09T06:53:28.263Z,80.98
2018-08-09T06:54:28.253Z,80.68
2018-08-09T06:55:28.242Z,81.07
2018-08-09T06:56:28.232Z,81.07
2018-08-09T06:57:28.245Z,80.68
2018-08-09T06:58:28.212Z,79.03
2018-08-09T06:59:28.205Z,78.53
2018-08-09T07:00:28.209Z,79.53
2018-08-09T07:01:28.180Z,79.03
2018-08-09T07:02:28.198Z,79.43
2018-08-09T07:03:28.166Z,78.99
2018-08-09T07:04:28.145Z,78.59
2018-08-09T07:05:28.138Z,78.49
2018-08-09T07:06:28.124Z,78.29
2018-08-09T07:07:28.153Z,78.69
2018-08-09T07:08:28.103Z,77.45
2018-08-09T07:09:28.106Z,76.61
2018-08-09T07:10:28.083Z,75.97
2018-08-09T07:11:28.070Z,74.40
2018-08-09T07:12:28.060Z,72.92
2018-08-09T07:13:28.081Z,72.23
2018-08-09T07:14:28.037Z,73.36
2018-08-09T07:15:28.030Z,73.33
2018-08-09T07:16:28.017Z,72.46
2018-08-09T07:17:28.005Z,72.53
2018-08-09T07:18:28.024Z,72.26
2018-08-09T07:19:27.984Z,72.26
2018-08-09T07:20:28.028Z,72.26
2018-08-09T07:21:27.962Z,72.76
2018-08-09T07:22:27.960Z,72.96
2018-08-09T07:23:27.941Z,73.26
2018-08-09T07:24:27.956Z,72.36
2018-08-09T07:25:27.919Z,72.36
2018-08-09T07:26:27.960Z,73.26
2018-08-09T07:27:27.898Z,72.16
2018-08-09T07:28:27.894Z,72.56
2018-08-09T07:29:27.904Z,73.26
2018-08-09T07:30:27.868Z,74.06
2018-08-09T07:31:27.856Z,74.87
2018-08-09T07:32:27.857Z,71.53
2018-08-09T07:33:27.835Z,71.73
2018-08-09T07:34:27.855Z,72.09
2018-08-09T07:35:27.820Z,71.56
2018-08-09T07:36:27.829Z,71.56
2018-08-09T07:37:27.794Z,71.16
2018-08-09T07:38:27.783Z,71.36
2018-08-09T07:39:27.882Z,70.72
2018-08-09T07:40:27.786Z,69.82
2018-08-09T07:41:27.751Z,68.93
2018-08-09T07:42:27.740Z,68.93
2018-08-09T07:43:27.730Z,69.09
2018-08-09T07:44:27.719Z,68.29
2018-08-09T07:45:27.756Z,69.53
2018-08-09T07:46:27.701Z,69.16
2018-08-09T07:47:27.687Z,69.29
2018-08-09T07:48:27.721Z,69.79
2018-08-09T07:49:27.673Z,70.56
2018-08-09T07:50:27.683Z,71.06
2018-08-09T07:51:27.670Z,71.83
2018-08-09T07:52:27.638Z,72.02
2018-08-09T07:53:27.625Z,70.79
2018-08-09T07:54:27.735Z,70.06
2018-08-09T07:55:27.602Z,69.79
2018-08-09T07:56:27.621Z,69.76
2018-08-09T07:57:27.593Z,68.83
2018-08-09T07:58:27.571Z,67.63
2018-08-09T07:59:27.561Z,67.60
2018-08-09T08:00:27.552Z,67.47
2018-08-09T08:01:27.567Z,66.57
2018-08-09T08:02:27.531Z,65.87
2018-08-09T08:03:27.529Z,66.17
2018-08-09T08:04:27.515Z,67.17
2018-08-09T08:05:27.504Z,66.87
2018-08-09T08:06:27.525Z,67.17
2018-08-09T08:07:27.474Z,68.16
2018-08-09T08:08:27.512Z,67.50
2018-08-09T08:09:27.462Z,68.00
2018-08-09T08:10:27.444Z,67.86
2018-08-09T08:11:27.435Z,68.49
2018-08-09T08:12:27.446Z,67.47
2018-08-09T08:13:27.409Z,66.80
2018-08-09T08:14:27.398Z,67.40
2018-08-09T08:15:27.388Z,67.30
2018-08-09T08:16:27.377Z,69.59
2018-08-09T08:17:27.390Z,68.70
2018-08-09T08:18:27.355Z,67.00
2018-08-09T08:19:27.345Z,68.30
2018-08-09T08:20:27.333Z,68.07
2018-08-09T08:21:27.324Z,67.77
2018-08-09T08:22:27.348Z,68.37
2018-08-09T08:23:27.301Z,67.57
2018-08-09T08:24:27.297Z,66.87
2018-08-09T08:25:27.281Z,66.57
2018-08-09T08:26:27.267Z,68.07
2018-08-09T08:27:27.280Z,66.57
2018-08-09T08:28:27.296Z,67.24
2018-08-09T08:29:27.237Z,67.54
2018-08-09T08:30:27.225Z,66.64
2018-08-09T08:31:27.214Z,66.64
2018-08-09T08:32:27.203Z,65.71
2018-08-09T08:33:27.220Z,65.91
2018-08-09T08:34:27.210Z,66.71
2018-08-09T08:35:27.170Z,65.81
2018-08-09T08:36:27.187Z,65.71
2018-08-09T08:37:27.149Z,65.81
2018-08-09T08:38:27.161Z,67.17
2018-08-09T08:39:27.128Z,65.48
2018-08-09T08:40:27.116Z,64.98
2018-08-09T08:41:27.162Z,64.39
2018-08-09T08:42:27.094Z,64.78
2018-08-09T08:43:27.113Z,64.65
2018-08-09T08:44:27.095Z,64.95
2018-08-09T08:45:27.061Z,64.65
2018-08-09T08:46:27.051Z,62.43
2018-08-09T08:47:27.065Z,63.89
2018-08-09T08:48:27.034Z,62.50
2018-08-09T08:49:27.046Z,62.27
2018-08-09T08:50:27.008Z,62.84
2018-08-09T08:51:27.001Z,61.72
2018-08-09T08:52:26.989Z,61.69
2018-08-09T08:53:26.979Z,59.41
2018-08-09T08:54:27.017Z,61.46
2018-08-09T08:55:26.957Z,60.74
2018-08-09T08:56:26.945Z,60.05
2018-08-09T08:57:26.935Z,59.32
2018-08-09T08:58:26.925Z,59.49
2018-08-09T08:59:26.942Z,58.11
2018-08-09T09:00:26.907Z,58.47
2018-08-09T09:01:26.899Z,56.89
2018-08-09T09:02:26.882Z,57.09
2018-08-09T09:03:26.891Z,57.29
2018-08-09T09:04:26.919Z,56.40
2018-08-09T09:05:26.881Z,57.41
2018-08-09T09:06:26.840Z,56.85
2018-08-09T09:07:26.848Z,59.30
2018-08-09T09:08:26.819Z,57.93
2018-08-09T09:09:26.823Z,60.91
2018-08-09T09:10:26.824Z,60.21
2018-08-09T09:11:26.789Z,59.42
2018-08-09T09:12:26.777Z,59.81
2018-08-09T09:13:26.767Z,58.73
2018-08-09T09:14:26.757Z,59.62
2018-08-09T09:15:26.772Z,59.32
2018-08-09T09:16:26.735Z,59.22
2018-08-09T09:17:26.729Z,59.00
2018-08-09T09:18:26.714Z,58.90
2018-08-09T09:19:26.705Z,57.78
2018-08-09T09:20:26.739Z,57.29
2018-08-09T09:21:26.683Z,56.89
2018-08-09T09:22:26.673Z,56.99
2018-08-09T09:23:26.661Z,57.29
2018-08-09T09:24:26.650Z,56.89
2018-08-09T09:25:26.664Z,57.48
2018-08-09T09:26:26.630Z,56.59
2018-08-09T09:27:26.619Z,57.18
2018-08-09T09:28:26.610Z,56.46
2018-08-09T09:29:26.602Z,55.77
2018-08-09T09:30:26.637Z,57.65
2018-08-09T09:31:26.579Z,55.77
2018-08-09T09:32:26.568Z,56.40
2018-08-09T09:33:26.558Z,56.86
2018-08-09T09:34:26.546Z,57.46
2018-08-09T09:35:26.538Z,55.08
2018-08-09T09:36:26.552Z,56.57
2018-08-09T09:37:26.523Z,56.17
2018-08-09T09:38:26.506Z,55.26
2018-08-09T09:39:26.494Z,55.55
2018-08-09T09:40:26.485Z,53.87
2018-08-09T09:41:26.517Z,55.26
2018-08-09T09:42:26.478Z,55.45
2018-08-09T09:43:26.452Z,55.15
2018-08-09T09:44:26.445Z,55.65
2018-08-09T09:45:26.432Z,55.33
2018-08-09T09:46:26.451Z,56.21
2018-08-09T09:47:26.411Z,55.43
2018-08-09T09:48:26.402Z,54.53
2018-08-09T09:49:26.390Z,55.33
2018-08-09T09:50:26.380Z,54.44
2018-08-09T09:51:26.369Z,53.81
2018-08-09T09:52:26.388Z,54.02
2018-08-09T09:53:26.371Z,55.40
2018-08-09T09:54:26.375Z,55.30
2018-08-09T09:55:26.330Z,54.68
2018-08-09T09:56:26.320Z,54.58
2018-08-09T09:57:26.331Z,52.53
2018-08-09T09:58:26.295Z,53.30
2018-08-09T09:59:26.286Z,54.19
2018-08-09T10:00:26.274Z,52.21
2018-08-09T10:01:26.266Z,53.79
2018-08-09T10:02:26.280Z,53.37
2018-08-09T10:03:26.257Z,51.89
2018-08-09T10:04:26.232Z,52.09
2018-08-09T10:05:26.224Z,52.19
2018-08-09T10:06:26.212Z,52.09
2018-08-09T10:07:26.236Z,52.48
2018-08-09T10:08:26.192Z,51.87
2018-08-09T10:09:26.180Z,52.06
2018-08-09T10:10:26.221Z,52.06
2018-08-09T10:11:26.158Z,51.47
2018-08-09T10:12:26.171Z,51.67
2018-08-09T10:13:26.140Z,51.47
2018-08-09T10:14:26.129Z,51.97
2018-08-09T10:15:26.116Z,51.05
2018-08-09T10:16:26.124Z,51.74
2018-08-09T10:17:26.119Z,50.24
2018-08-09T10:18:26.085Z,50.93
2018-08-09T10:19:26.074Z,51.42
2018-08-09T10:20:26.067Z,49.75
2018-08-09T10:21:26.054Z,50.31
2018-08-09T10:22:26.069Z,49.33
2018-08-09T10:23:26.037Z,50.12
2018-08-09T10:24:26.023Z,49.52
2018-08-09T10:25:26.012Z,50.02
2018-08-09T10:26:26.017Z,50.49
2018-08-09T10:27:26.017Z,49.80
2018-08-09T10:28:25.983Z,50.07
2018-08-09T10:29:25.971Z,48.79
2018-08-09T10:30:25.965Z,47.98
2018-08-09T10:31:25.951Z,46.50
2018-08-09T10:32:25.968Z,46.58
2018-08-09T10:33:25.931Z,47.66
2018-08-09T10:34:25.919Z,47.66
2018-08-09T10:35:25.923Z,46.48
2018-08-09T10:36:25.922Z,46.58
2018-08-09T10:37:25.889Z,46.19
2018-08-09T10:38:25.926Z,46.88
2018-08-09T10:39:25.870Z,46.88
2018-08-09T10:40:25.857Z,47.44
2018-08-09T10:41:25.848Z,46.34
2018-08-09T10:42:25.842Z,45.85
2018-08-09T10:43:25.854Z,46.14
2018-08-09T10:44:25.818Z,47.00
2018-08-09T10:45:25.812Z,45.43
2018-08-09T10:46:25.796Z,46.02
2018-08-09T10:47:25.788Z,45.24
2018-08-09T10:48:25.805Z,44.87
2018-08-09T10:49:25.799Z,46.31
2018-08-09T10:50:25.755Z,45.36
2018-08-09T10:51:25.779Z,45.85
2018-08-09T10:52:25.744Z,45.36
2018-08-09T10:53:25.726Z,45.38
2018-08-09T10:54:25.740Z,45.20
2018-08-09T10:55:25.705Z,45.79
2018-08-09T10:56:25.700Z,46.19
2018-08-09T10:57:25.691Z,45.50
2018-08-09T10:58:25.675Z,46.38
2018-08-09T10:59:25.728Z,46.19
2018-08-09T11:00:25.654Z,46.58
2018-08-09T11:01:25.644Z,46.97
2018-08-09T11:02:25.640Z,47.56
2018-08-09T11:03:25.624Z,45.87
2018-08-09T11:04:25.643Z,45.28
2018-08-09T11:05:25.604Z,45.38
2018-08-09T11:06:25.602Z,45.09
2018-08-09T11:07:25.589Z,43.98
2018-08-09T11:08:25.578Z,44.65
2018-08-09T11:09:25.625Z,44.84
2018-08-09T11:10:25.578Z,44.35
2018-08-09T11:11:25.545Z,43.65
2018-08-09T11:12:25.536Z,43.94
2018-08-09T11:13:25.523Z,43.92
2018-08-09T11:14:25.513Z,44.38
2018-08-09T11:15:25.527Z,42.62
2018-08-09T11:16:25.491Z,42.91
2018-08-09T11:17:25.481Z,42.62
2018-08-09T11:18:25.472Z,43.31
2018-08-09T11:19:25.720Z,43.02
2018-08-09T11:20:25.474Z,42.33
2018-08-09T11:21:25.453Z,42.50
2018-08-09T11:22:25.452Z,42.19
2018-08-09T11:23:25.420Z,41.78
2018-08-09T11:24:25.414Z,41.15
2018-08-09T11:25:25.437Z,39.94
2018-08-09T11:26:25.406Z,39.92
2018-08-09T11:27:25.381Z,39.04
2018-08-09T11:28:25.377Z,38.35
2018-08-09T11:29:25.375Z,39.23
2018-08-09T11:30:25.367Z,39.16
2018-08-09T11:31:25.372Z,38.59
2018-08-09T11:32:25.354Z,38.79
2018-08-09T11:33:25.327Z,40.17
2018-08-09T11:34:25.318Z,40.27
2018-08-09T11:35:25.304Z,40.80
2018-08-09T11:36:25.319Z,40.80
2018-08-09T11:37:25.285Z,41.70
2018-08-09T11:38:25.285Z,41.99
2018-08-09T11:39:25.267Z,41.92
2018-08-09T11:40:25.260Z,42.21
2018-08-09T11:41:25.280Z,42.23
2018-08-09T11:42:25.260Z,43.12
2018-08-09T11:43:25.230Z,42.52
2018-08-09T11:44:25.222Z,42.82
2018-08-09T11:45:25.205Z,43.31
2018-08-09T11:46:25.198Z,42.52
2018-08-09T11:47:25.209Z,42.23
2018-08-09T11:48:25.189Z,42.72
2018-08-09T11:49:25.230Z,42.72
2018-08-09T11:50:25.170Z,43.31
2018-08-09T11:51:25.147Z,42.90
2018-08-09T11:52:25.193Z,41.05
2018-08-09T11:53:25.139Z,43.12
2018-08-09T11:54:25.166Z,42.72
2018-08-09T11:55:25.126Z,42.52
2018-08-09T11:56:25.144Z,42.82
2018-08-09T11:57:25.084Z,43.60
2018-08-09T11:58:25.106Z,42.72
2018-08-09T11:59:25.068Z,44.19
2018-08-09T12:00:25.056Z,43.31
2018-08-09T12:01:25.089Z,42.82
2018-08-09T12:02:25.033Z,42.25
2018-08-09T12:03:25.092Z,42.23
2018-08-09T12:04:25.073Z,42.03
2018-08-09T12:05:25.022Z,41.94
2018-08-09T12:06:24.994Z,41.25
2018-08-09T12:07:24.989Z,42.62
2018-08-09T12:08:24.996Z,41.35
2018-08-09T12:09:24.983Z,43.21
2018-08-09T12:10:24.952Z,42.31
2018-08-09T12:11:24.957Z,42.72
2018-08-09T12:12:24.938Z,42.82
2018-08-09T12:13:24.992Z,43.92
2018-08-09T12:14:24.930Z,44.21
2018-08-09T12:15:24.950Z,43.45
2018-08-09T12:16:24.890Z,43.74
2018-08-09T12:17:24.885Z,44.33
2018-08-09T12:18:24.916Z,43.96
2018-08-09T12:19:24.893Z,45.36
2018-08-09T12:20:24.868Z,44.47
2018-08-09T12:21:24.851Z,45.48
2018-08-09T12:22:24.831Z,46.88
2018-08-09T12:23:24.823Z,47.56
2018-08-09T12:24:24.893Z,48.47
2018-08-09T12:25:24.801Z,49.08
2018-08-09T12:26:24.789Z,54.03
2018-08-09T12:27:24.783Z,59.01
2018-08-09T12:28:24.796Z,64.03
2018-08-09T12:29:24.796Z,69.06
2018-08-09T12:30:24.759Z,66.58
2018-08-09T12:31:24.885Z,69.23
2018-08-09T12:32:24.734Z,74.43
2018-08-09T12:33:24.758Z,73.55
2018-08-09T12:34:24.707Z,75.85
2018-08-09T12:35:24.721Z,82.21
2018-08-09T12:36:24.750Z,87.89
2018-08-09T12:37:24.751Z,85.73
2018-08-09T12:38:24.687Z,91.98
2018-08-09T12:39:24.653Z,93.28
2018-08-09T12:40:24.728Z,87.68
2018-08-09T12:41:24.825Z,89.52
2018-08-09T12:42:24.840Z,91.22
2018-08-09T12:43:24.705Z,91.42
2018-08-09T12:44:24.608Z,90.46
2018-08-09T12:45:24.684Z,90.06
2018-08-09T12:46:24.578Z,91.27
2018-08-09T12:47:24.803Z,93.41
2018-08-09T23:06:32.939Z,72.91
2018-08-09T23:07:32.905Z,72.81
2018-08-09T23:08:32.933Z,73.92
2018-08-09T23:09:32.890Z,73.85
2018-08-09T23:10:32.921Z,73.96